sensor_id;sensor_type;location;lat;lon;timestamp;temperature;humidity
32428;DHT22;18882;50.952;4.366;2023-02-20T00:57:48;6.50;99.90
32428;DHT22;18882;50.952;4.366;2023-02-20T10:07:38;9.30;99.90
32428;DHT22;18882;50.952;4.366;2023-02-20T10:10:28;9.30;99.90
32428;DHT22;18882;50.952;4.366;2023-02-20T10:18:30;9.30;99.90
32428;DHT22;18882;50.952;4.366;2023-02-20T10:26:45;9.40;99.90
32428;DHT22;18882;50.952;4.366;2023-02-20T10:29:25;9.40;99.90
32428;DHT22;18882;50.952;4.366;2023-02-20T10:32:05;9.50;99.90
32428;DHT22;18882;50.952;4.366;2023-02-20T10:34:36;9.60;99.90
32428;DHT22;18882;50.952;4.366;2023-02-20T10:37:19;9.60;99.90
32428;DHT22;18882;50.952;4.366;2023-02-20T10:40:22;9.50;99.90
32428;DHT22;18882;50.952;4.366;2023-02-20T10:43:15;9.50;99.90
32428;DHT22;18882;50.952;4.366;2023-02-20T10:45:57;9.60;99.90
32428;DHT22;18882;50.952;4.366;2023-02-20T10:48:28;9.70;99.90
32428;DHT22;18882;50.952;4.366;2023-02-20T10:51:03;9.70;99.90
32428;DHT22;18882;50.952;4.366;2023-02-20T10:53:39;9.60;99.90
32428;DHT22;18882;50.952;4.366;2023-02-20T10:56:16;9.60;99.90
32428;DHT22;18882;50.952;4.366;2023-02-20T10:58:56;9.70;99.90
32428;DHT22;18882;50.952;4.366;2023-02-20T11:01:26;9.60;99.90
32428;DHT22;18882;50.952;4.366;2023-02-20T11:04:08;9.60;99.90
32428;DHT22;18882;50.952;4.366;2023-02-20T11:06:46;9.60;99.90
32428;DHT22;18882;50.952;4.366;2023-02-20T11:09:14;9.60;99.90
32428;DHT22;18882;50.952;4.366;2023-02-20T11:11:45;9.60;99.90
32428;DHT22;18882;50.952;4.366;2023-02-20T11:16:52;9.70;99.90
32428;DHT22;18882;50.952;4.366;2023-02-20T11:19:24;9.70;99.90
32428;DHT22;18882;50.952;4.366;2023-02-20T11:21:51;9.80;99.90
32428;DHT22;18882;50.952;4.366;2023-02-20T11:24:19;9.80;99.90
32428;DHT22;18882;50.952;4.366;2023-02-20T11:26:48;9.90;99.90
32428;DHT22;18882;50.952;4.366;2023-02-20T11:29:17;9.80;99.90
32428;DHT22;18882;50.952;4.366;2023-02-20T11:31:44;9.90;99.90
32428;DHT22;18882;50.952;4.366;2023-02-20T11:34:23;10.00;99.90
32428;DHT22;18882;50.952;4.366;2023-02-20T11:36:54;10.00;99.90
32428;DHT22;18882;50.952;4.366;2023-02-20T11:39:29;10.10;99.90
32428;DHT22;18882;50.952;4.366;2023-02-20T11:42:28;10.20;99.90
32428;DHT22;18882;50.952;4.366;2023-02-20T11:45:16;10.30;99.90
32428;DHT22;18882;50.952;4.366;2023-02-20T11:50:38;10.30;99.90
32428;DHT22;18882;50.952;4.366;2023-02-20T11:53:05;10.30;99.90
32428;DHT22;18882;50.952;4.366;2023-02-20T11:55:32;10.00;99.90
32428;DHT22;18882;50.952;4.366;2023-02-20T11:57:58;10.00;99.90
32428;DHT22;18882;50.952;4.366;2023-02-20T12:00:26;9.90;99.90
32428;DHT22;18882;50.952;4.366;2023-02-20T12:02:55;9.90;99.90
32428;DHT22;18882;50.952;4.366;2023-02-20T12:05:37;10.00;99.90
32428;DHT22;18882;50.952;4.366;2023-02-20T12:11:09;10.10;99.90
32428;DHT22;18882;50.952;4.366;2023-02-20T12:13:43;10.20;99.90
32428;DHT22;18882;50.952;4.366;2023-02-20T12:16:51;10.20;99.90
32428;DHT22;18882;50.952;4.366;2023-02-20T12:25:14;10.40;99.90
32428;DHT22;18882;50.952;4.366;2023-02-20T12:28:00;10.20;99.90
32428;DHT22;18882;50.952;4.366;2023-02-20T12:30:51;10.10;99.90
32428;DHT22;18882;50.952;4.366;2023-02-20T12:33:47;10.30;99.90
32428;DHT22;18882;50.952;4.366;2023-02-20T12:42:20;10.40;99.90
32428;DHT22;18882;50.952;4.366;2023-02-20T12:48:00;10.60;99.90
32428;DHT22;18882;50.952;4.366;2023-02-20T12:50:52;10.60;99.90
32428;DHT22;18882;50.952;4.366;2023-02-20T12:58:43;10.60;99.90
32428;DHT22;18882;50.952;4.366;2023-02-20T13:01:13;10.40;99.90
32428;DHT22;18882;50.952;4.366;2023-02-20T13:04:06;10.50;99.90
32428;DHT22;18882;50.952;4.366;2023-02-20T13:06:42;10.40;99.90
32428;DHT22;18882;50.952;4.366;2023-02-20T13:09:25;10.40;99.90
32428;DHT22;18882;50.952;4.366;2023-02-20T13:11:57;10.40;99.90
32428;DHT22;18882;50.952;4.366;2023-02-20T13:19:57;10.50;99.90
32428;DHT22;18882;50.952;4.366;2023-02-20T13:22:25;10.40;99.90
32428;DHT22;18882;50.952;4.366;2023-02-20T13:24:50;10.40;99.90
32428;DHT22;18882;50.952;4.366;2023-02-20T13:27:42;10.50;99.90
32428;DHT22;18882;50.952;4.366;2023-02-20T13:30:20;10.60;99.90
32428;DHT22;18882;50.952;4.366;2023-02-20T13:32:46;10.60;99.90
32428;DHT22;18882;50.952;4.366;2023-02-20T13:37:56;10.60;99.90
32428;DHT22;18882;50.952;4.366;2023-02-20T13:40:36;10.60;99.90
32428;DHT22;18882;50.952;4.366;2023-02-20T13:45:43;10.50;99.90
32428;DHT22;18882;50.952;4.366;2023-02-20T13:48:19;10.50;99.90
32428;DHT22;18882;50.952;4.366;2023-02-20T13:54:11;10.60;99.90
32428;DHT22;18882;50.952;4.366;2023-02-20T13:57:10;10.60;99.90
32428;DHT22;18882;50.952;4.366;2023-02-20T13:59:40;10.60;99.90
32428;DHT22;18882;50.952;4.366;2023-02-20T14:02:12;10.60;99.90
32428;DHT22;18882;50.952;4.366;2023-02-20T14:04:38;10.60;99.90
32428;DHT22;18882;50.952;4.366;2023-02-20T14:07:04;10.70;99.90
32428;DHT22;18882;50.952;4.366;2023-02-20T14:09:30;10.70;99.90
32428;DHT22;18882;50.952;4.366;2023-02-20T14:12:12;10.70;99.90
32428;DHT22;18882;50.952;4.366;2023-02-20T14:14:41;10.70;99.90
32428;DHT22;18882;50.952;4.366;2023-02-20T14:17:15;10.60;99.90
32428;DHT22;18882;50.952;4.366;2023-02-20T14:19:43;10.50;99.90
32428;DHT22;18882;50.952;4.366;2023-02-20T14:22:31;10.60;99.90
32428;DHT22;18882;50.952;4.366;2023-02-20T14:27:42;10.50;99.90
32428;DHT22;18882;50.952;4.366;2023-02-20T14:30:15;10.40;99.90
32428;DHT22;18882;50.952;4.366;2023-02-20T14:32:49;10.50;99.90
32428;DHT22;18882;50.952;4.366;2023-02-20T14:40:33;10.50;99.90
32428;DHT22;18882;50.952;4.366;2023-02-20T14:43:01;10.50;99.90
32428;DHT22;18882;50.952;4.366;2023-02-20T14:45:27;10.60;99.90
32428;DHT22;18882;50.952;4.366;2023-02-20T14:47:57;10.70;99.90
32428;DHT22;18882;50.952;4.366;2023-02-20T14:50:30;10.70;99.90
32428;DHT22;18882;50.952;4.366;2023-02-20T14:55:35;10.60;99.90
32428;DHT22;18882;50.952;4.366;2023-02-20T14:58:10;10.50;99.90
32428;DHT22;18882;50.952;4.366;2023-02-20T15:00:38;10.60;99.90
32428;DHT22;18882;50.952;4.366;2023-02-20T15:03:13;10.50;99.90
32428;DHT22;18882;50.952;4.366;2023-02-20T15:05:45;10.60;99.90
32428;DHT22;18882;50.952;4.366;2023-02-20T15:10:44;10.70;99.90
32428;DHT22;18882;50.952;4.366;2023-02-20T15:13:16;10.70;99.90
32428;DHT22;18882;50.952;4.366;2023-02-20T15:15:49;10.60;99.90
32428;DHT22;18882;50.952;4.366;2023-02-20T15:18:33;10.60;99.90
32428;DHT22;18882;50.952;4.366;2023-02-20T15:20:59;10.60;99.90
32428;DHT22;18882;50.952;4.366;2023-02-20T15:23:33;10.50;99.90
32428;DHT22;18882;50.952;4.366;2023-02-20T15:26:29;10.50;99.90
32428;DHT22;18882;50.952;4.366;2023-02-20T15:31:53;10.50;99.90
32428;DHT22;18882;50.952;4.366;2023-02-20T15:34:23;10.50;99.90
32428;DHT22;18882;50.952;4.366;2023-02-20T15:36:49;10.50;99.90
32428;DHT22;18882;50.952;4.366;2023-02-20T15:39:15;10.60;99.90
32428;DHT22;18882;50.952;4.366;2023-02-20T15:41:42;10.50;99.90
32428;DHT22;18882;50.952;4.366;2023-02-20T15:44:08;10.50;99.90
32428;DHT22;18882;50.952;4.366;2023-02-20T15:46:35;10.50;99.90
32428;DHT22;18882;50.952;4.366;2023-02-20T15:49:01;10.30;99.90
32428;DHT22;18882;50.952;4.366;2023-02-20T15:51:28;10.30;99.90
32428;DHT22;18882;50.952;4.366;2023-02-20T15:53:56;10.40;99.90
32428;DHT22;18882;50.952;4.366;2023-02-20T15:56:26;10.30;99.90
32428;DHT22;18882;50.952;4.366;2023-02-20T15:58:53;10.40;99.90
32428;DHT22;18882;50.952;4.366;2023-02-20T16:01:19;10.40;99.90
32428;DHT22;18882;50.952;4.366;2023-02-20T16:03:45;10.30;99.90
32428;DHT22;18882;50.952;4.366;2023-02-20T16:06:11;10.30;99.90
32428;DHT22;18882;50.952;4.366;2023-02-20T16:08:37;10.30;99.90
32428;DHT22;18882;50.952;4.366;2023-02-20T16:11:06;10.20;99.90
32428;DHT22;18882;50.952;4.366;2023-02-20T16:13:37;10.10;99.90
32428;DHT22;18882;50.952;4.366;2023-02-20T16:16:19;10.20;99.90
32428;DHT22;18882;50.952;4.366;2023-02-20T16:18:46;10.20;99.90
32428;DHT22;18882;50.952;4.366;2023-02-20T16:21:13;10.30;99.90
32428;DHT22;18882;50.952;4.366;2023-02-20T16:23:40;10.40;99.90
32428;DHT22;18882;50.952;4.366;2023-02-20T16:26:08;10.40;99.90
32428;DHT22;18882;50.952;4.366;2023-02-20T16:28:33;10.30;99.90
32428;DHT22;18882;50.952;4.366;2023-02-20T16:30:59;10.30;99.90
32428;DHT22;18882;50.952;4.366;2023-02-20T16:33:25;10.40;99.90
32428;DHT22;18882;50.952;4.366;2023-02-20T16:35:51;10.40;99.90
32428;DHT22;18882;50.952;4.366;2023-02-20T16:38:18;10.30;99.90
32428;DHT22;18882;50.952;4.366;2023-02-20T16:40:45;10.30;99.90
32428;DHT22;18882;50.952;4.366;2023-02-20T16:43:14;10.30;99.90
32428;DHT22;18882;50.952;4.366;2023-02-20T16:45:40;10.40;99.90
32428;DHT22;18882;50.952;4.366;2023-02-20T16:48:16;10.20;99.90
32428;DHT22;18882;50.952;4.366;2023-02-20T16:50:42;10.40;99.90
32428;DHT22;18882;50.952;4.366;2023-02-20T16:53:11;10.30;99.90
32428;DHT22;18882;50.952;4.366;2023-02-20T16:55:38;10.30;99.90
32428;DHT22;18882;50.952;4.366;2023-02-20T16:58:06;10.30;99.90
32428;DHT22;18882;50.952;4.366;2023-02-20T17:00:34;10.30;99.90
32428;DHT22;18882;50.952;4.366;2023-02-20T17:03:01;10.30;99.90
32428;DHT22;18882;50.952;4.366;2023-02-20T17:05:29;10.30;99.90
32428;DHT22;18882;50.952;4.366;2023-02-20T17:07:56;10.30;99.90
32428;DHT22;18882;50.952;4.366;2023-02-20T17:10:23;10.30;99.90
32428;DHT22;18882;50.952;4.366;2023-02-20T17:12:49;10.20;99.90
32428;DHT22;18882;50.952;4.366;2023-02-20T17:15:16;10.20;99.90
32428;DHT22;18882;50.952;4.366;2023-02-20T17:17:43;10.20;99.90
32428;DHT22;18882;50.952;4.366;2023-02-20T17:20:18;10.30;99.90
32428;DHT22;18882;50.952;4.366;2023-02-20T17:22:47;10.20;99.90
32428;DHT22;18882;50.952;4.366;2023-02-20T17:25:18;10.10;99.90
32428;DHT22;18882;50.952;4.366;2023-02-20T17:27:45;10.00;99.90
32428;DHT22;18882;50.952;4.366;2023-02-20T17:30:11;10.00;99.90
32428;DHT22;18882;50.952;4.366;2023-02-20T17:32:37;10.00;99.90
32428;DHT22;18882;50.952;4.366;2023-02-20T17:35:03;10.00;99.90
32428;DHT22;18882;50.952;4.366;2023-02-20T17:37:29;9.90;99.90
32428;DHT22;18882;50.952;4.366;2023-02-20T17:39:56;9.80;99.90
32428;DHT22;18882;50.952;4.366;2023-02-20T17:42:22;9.90;99.90
32428;DHT22;18882;50.952;4.366;2023-02-20T17:44:48;9.90;99.90
32428;DHT22;18882;50.952;4.366;2023-02-20T17:47:17;9.90;99.90
32428;DHT22;18882;50.952;4.366;2023-02-20T17:49:43;9.90;99.90
32428;DHT22;18882;50.952;4.366;2023-02-20T17:52:09;9.80;99.90
32428;DHT22;18882;50.952;4.366;2023-02-20T17:54:35;9.80;99.90
32428;DHT22;18882;50.952;4.366;2023-02-20T17:57:01;9.90;99.90
32428;DHT22;18882;50.952;4.366;2023-02-20T17:59:27;9.90;99.90
32428;DHT22;18882;50.952;4.366;2023-02-20T18:01:54;10.00;99.90
32428;DHT22;18882;50.952;4.366;2023-02-20T18:04:20;10.00;99.90
32428;DHT22;18882;50.952;4.366;2023-02-20T18:06:46;9.90;99.90
32428;DHT22;18882;50.952;4.366;2023-02-20T18:09:14;9.90;99.90
32428;DHT22;18882;50.952;4.366;2023-02-20T18:11:41;10.00;99.90
32428;DHT22;18882;50.952;4.366;2023-02-20T18:14:08;10.00;99.90
32428;DHT22;18882;50.952;4.366;2023-02-20T18:16:33;9.90;99.90
32428;DHT22;18882;50.952;4.366;2023-02-20T18:18:59;9.80;99.90
32428;DHT22;18882;50.952;4.366;2023-02-20T18:21:28;9.90;99.90
32428;DHT22;18882;50.952;4.366;2023-02-20T18:23:54;9.80;99.90
32428;DHT22;18882;50.952;4.366;2023-02-20T18:26:20;9.80;99.90
32428;DHT22;18882;50.952;4.366;2023-02-20T18:28:46;9.90;99.90
32428;DHT22;18882;50.952;4.366;2023-02-20T18:31:12;9.90;99.90
32428;DHT22;18882;50.952;4.366;2023-02-20T18:33:38;9.80;99.90
32428;DHT22;18882;50.952;4.366;2023-02-20T18:36:05;9.70;99.90
32428;DHT22;18882;50.952;4.366;2023-02-20T18:38:31;9.70;99.90
32428;DHT22;18882;50.952;4.366;2023-02-20T18:40:57;9.70;99.90
32428;DHT22;18882;50.952;4.366;2023-02-20T18:43:24;9.70;99.90
32428;DHT22;18882;50.952;4.366;2023-02-20T18:45:49;9.80;99.90
32428;DHT22;18882;50.952;4.366;2023-02-20T18:48:15;9.70;99.90
32428;DHT22;18882;50.952;4.366;2023-02-20T18:50:41;9.80;99.90
32428;DHT22;18882;50.952;4.366;2023-02-20T18:53:07;9.70;99.90
32428;DHT22;18882;50.952;4.366;2023-02-20T18:55:33;9.70;99.90
32428;DHT22;18882;50.952;4.366;2023-02-20T18:57:59;9.60;99.90
32428;DHT22;18882;50.952;4.366;2023-02-20T19:00:27;9.60;99.90
32428;DHT22;18882;50.952;4.366;2023-02-20T19:02:55;9.70;99.90
32428;DHT22;18882;50.952;4.366;2023-02-20T19:05:22;9.70;99.90
32428;DHT22;18882;50.952;4.366;2023-02-20T19:07:48;9.70;99.90
32428;DHT22;18882;50.952;4.366;2023-02-20T19:10:21;9.60;99.90
32428;DHT22;18882;50.952;4.366;2023-02-20T19:12:48;9.70;99.90
32428;DHT22;18882;50.952;4.366;2023-02-20T19:15:14;9.70;99.90
32428;DHT22;18882;50.952;4.366;2023-02-20T19:17:40;9.70;99.90
32428;DHT22;18882;50.952;4.366;2023-02-20T19:20:13;9.70;99.90
32428;DHT22;18882;50.952;4.366;2023-02-20T19:22:40;9.50;99.90
32428;DHT22;18882;50.952;4.366;2023-02-20T19:25:06;9.50;99.90
32428;DHT22;18882;50.952;4.366;2023-02-20T19:27:31;9.60;99.90
32428;DHT22;18882;50.952;4.366;2023-02-20T19:29:57;9.60;99.90
32428;DHT22;18882;50.952;4.366;2023-02-20T19:32:22;9.60;99.90
32428;DHT22;18882;50.952;4.366;2023-02-20T19:34:48;9.50;99.90
32428;DHT22;18882;50.952;4.366;2023-02-20T19:37:15;9.60;99.90
32428;DHT22;18882;50.952;4.366;2023-02-20T19:39:41;9.60;99.90
32428;DHT22;18882;50.952;4.366;2023-02-20T19:42:07;9.70;99.90
32428;DHT22;18882;50.952;4.366;2023-02-20T19:44:33;9.60;99.90
32428;DHT22;18882;50.952;4.366;2023-02-20T19:46:59;9.60;99.90
32428;DHT22;18882;50.952;4.366;2023-02-20T19:49:25;9.70;99.90
32428;DHT22;18882;50.952;4.366;2023-02-20T19:51:53;9.40;99.90
32428;DHT22;18882;50.952;4.366;2023-02-20T19:54:22;9.40;99.90
32428;DHT22;18882;50.952;4.366;2023-02-20T19:56:50;9.50;99.90
32428;DHT22;18882;50.952;4.366;2023-02-20T19:59:16;9.60;99.90
32428;DHT22;18882;50.952;4.366;2023-02-20T20:01:50;9.50;99.90
32428;DHT22;18882;50.952;4.366;2023-02-20T20:04:18;9.50;99.90
32428;DHT22;18882;50.952;4.366;2023-02-20T20:06:44;9.50;99.90
32428;DHT22;18882;50.952;4.366;2023-02-20T20:09:11;9.50;99.90
32428;DHT22;18882;50.952;4.366;2023-02-20T20:11:37;9.50;99.90
32428;DHT22;18882;50.952;4.366;2023-02-20T20:14:02;9.50;99.90
32428;DHT22;18882;50.952;4.366;2023-02-20T20:16:28;9.40;99.90
32428;DHT22;18882;50.952;4.366;2023-02-20T20:18:54;9.30;99.90
32428;DHT22;18882;50.952;4.366;2023-02-20T20:21:21;9.30;99.90
32428;DHT22;18882;50.952;4.366;2023-02-20T20:23:47;9.40;99.90
32428;DHT22;18882;50.952;4.366;2023-02-20T20:26:12;9.40;99.90
32428;DHT22;18882;50.952;4.366;2023-02-20T20:28:38;9.30;99.90
32428;DHT22;18882;50.952;4.366;2023-02-20T20:31:04;9.30;99.90
32428;DHT22;18882;50.952;4.366;2023-02-20T20:33:30;9.40;99.90
32428;DHT22;18882;50.952;4.366;2023-02-20T20:35:56;9.30;99.90
32428;DHT22;18882;50.952;4.366;2023-02-20T20:38:23;9.30;99.90
32428;DHT22;18882;50.952;4.366;2023-02-20T20:40:49;9.10;99.90
32428;DHT22;18882;50.952;4.366;2023-02-20T20:43:15;9.10;99.90
32428;DHT22;18882;50.952;4.366;2023-02-20T20:45:41;9.10;99.90
32428;DHT22;18882;50.952;4.366;2023-02-20T20:48:08;9.10;99.90
32428;DHT22;18882;50.952;4.366;2023-02-20T20:50:33;9.20;99.90
32428;DHT22;18882;50.952;4.366;2023-02-20T20:53:00;9.20;99.90
32428;DHT22;18882;50.952;4.366;2023-02-20T20:55:27;9.20;99.90
32428;DHT22;18882;50.952;4.366;2023-02-20T20:57:53;9.20;99.90
32428;DHT22;18882;50.952;4.366;2023-02-20T21:00:25;9.30;99.90
32428;DHT22;18882;50.952;4.366;2023-02-20T21:02:51;9.40;99.90
32428;DHT22;18882;50.952;4.366;2023-02-20T21:05:18;9.40;99.90
32428;DHT22;18882;50.952;4.366;2023-02-20T21:07:45;9.50;99.90
32428;DHT22;18882;50.952;4.366;2023-02-20T21:10:12;9.50;99.90
32428;DHT22;18882;50.952;4.366;2023-02-20T21:12:38;9.50;99.90
32428;DHT22;18882;50.952;4.366;2023-02-20T21:15:06;9.60;99.90
32428;DHT22;18882;50.952;4.366;2023-02-20T21:17:32;9.70;99.90
32428;DHT22;18882;50.952;4.366;2023-02-20T21:19:57;9.70;99.90
32428;DHT22;18882;50.952;4.366;2023-02-20T21:22:24;9.70;99.90
32428;DHT22;18882;50.952;4.366;2023-02-20T21:24:50;9.70;99.90
32428;DHT22;18882;50.952;4.366;2023-02-20T21:27:15;9.50;99.90
32428;DHT22;18882;50.952;4.366;2023-02-20T21:29:42;9.30;99.90
32428;DHT22;18882;50.952;4.366;2023-02-20T21:32:07;9.30;99.90
32428;DHT22;18882;50.952;4.366;2023-02-20T21:34:33;9.10;99.90
32428;DHT22;18882;50.952;4.366;2023-02-20T21:36:59;9.10;99.90
32428;DHT22;18882;50.952;4.366;2023-02-20T21:39:24;9.00;99.90
32428;DHT22;18882;50.952;4.366;2023-02-20T21:41:50;9.00;99.90
32428;DHT22;18882;50.952;4.366;2023-02-20T21:44:35;9.10;99.90
32428;DHT22;18882;50.952;4.366;2023-02-20T21:47:06;9.10;99.90
32428;DHT22;18882;50.952;4.366;2023-02-20T21:49:34;9.10;99.90
32428;DHT22;18882;50.952;4.366;2023-02-20T21:52:01;9.20;99.90
32428;DHT22;18882;50.952;4.366;2023-02-20T21:54:30;9.10;99.90
32428;DHT22;18882;50.952;4.366;2023-02-20T21:56:56;9.00;99.90
32428;DHT22;18882;50.952;4.366;2023-02-20T21:59:25;9.10;99.90
32428;DHT22;18882;50.952;4.366;2023-02-20T22:01:56;9.10;99.90
32428;DHT22;18882;50.952;4.366;2023-02-20T22:04:22;9.00;99.90
32428;DHT22;18882;50.952;4.366;2023-02-20T22:06:48;8.90;99.90
32428;DHT22;18882;50.952;4.366;2023-02-20T22:09:33;8.90;99.90
32428;DHT22;18882;50.952;4.366;2023-02-20T22:12:17;9.00;99.90
32428;DHT22;18882;50.952;4.366;2023-02-20T22:15:02;9.10;99.90
32428;DHT22;18882;50.952;4.366;2023-02-20T22:17:46;9.00;99.90
32428;DHT22;18882;50.952;4.366;2023-02-20T22:20:31;9.00;99.90
32428;DHT22;18882;50.952;4.366;2023-02-20T22:23:15;9.00;99.90
32428;DHT22;18882;50.952;4.366;2023-02-20T22:25:59;9.10;99.90
32428;DHT22;18882;50.952;4.366;2023-02-20T22:28:43;9.10;99.90
32428;DHT22;18882;50.952;4.366;2023-02-20T22:31:29;9.10;99.90
32428;DHT22;18882;50.952;4.366;2023-02-20T22:34:13;9.00;99.90
32428;DHT22;18882;50.952;4.366;2023-02-20T22:36:57;9.00;99.90
32428;DHT22;18882;50.952;4.366;2023-02-20T22:39:41;9.00;99.90
32428;DHT22;18882;50.952;4.366;2023-02-20T22:42:27;9.00;99.90
32428;DHT22;18882;50.952;4.366;2023-02-20T22:45:11;8.90;99.90
32428;DHT22;18882;50.952;4.366;2023-02-20T22:47:57;8.60;99.90
32428;DHT22;18882;50.952;4.366;2023-02-20T22:50:46;8.60;99.90
32428;DHT22;18882;50.952;4.366;2023-02-20T22:53:30;8.70;99.90
32428;DHT22;18882;50.952;4.366;2023-02-20T22:56:21;8.70;99.90
32428;DHT22;18882;50.952;4.366;2023-02-20T22:59:07;8.80;99.90
32428;DHT22;18882;50.952;4.366;2023-02-20T23:01:52;8.80;99.90
32428;DHT22;18882;50.952;4.366;2023-02-20T23:04:58;8.90;99.90
32428;DHT22;18882;50.952;4.366;2023-02-20T23:07:43;8.90;99.90
32428;DHT22;18882;50.952;4.366;2023-02-20T23:10:27;9.00;99.90
32428;DHT22;18882;50.952;4.366;2023-02-20T23:13:12;9.00;99.90
32428;DHT22;18882;50.952;4.366;2023-02-20T23:15:56;9.00;99.90
32428;DHT22;18882;50.952;4.366;2023-02-20T23:18:41;9.00;99.90
32428;DHT22;18882;50.952;4.366;2023-02-20T23:21:25;9.10;99.90
32428;DHT22;18882;50.952;4.366;2023-02-20T23:24:09;9.20;99.90
32428;DHT22;18882;50.952;4.366;2023-02-20T23:26:54;9.10;99.90
32428;DHT22;18882;50.952;4.366;2023-02-20T23:29:45;9.00;99.90
32428;DHT22;18882;50.952;4.366;2023-02-20T23:32:55;8.80;99.90
32428;DHT22;18882;50.952;4.366;2023-02-20T23:35:50;8.80;99.90
32428;DHT22;18882;50.952;4.366;2023-02-20T23:38:50;8.80;99.90
32428;DHT22;18882;50.952;4.366;2023-02-20T23:41:35;8.80;99.90
32428;DHT22;18882;50.952;4.366;2023-02-20T23:44:19;8.80;99.90
32428;DHT22;18882;50.952;4.366;2023-02-20T23:47:04;8.70;99.90
32428;DHT22;18882;50.952;4.366;2023-02-20T23:49:48;8.50;99.90
32428;DHT22;18882;50.952;4.366;2023-02-20T23:52:33;8.50;99.90
32428;DHT22;18882;50.952;4.366;2023-02-20T23:55:17;8.60;99.90
32428;DHT22;18882;50.952;4.366;2023-02-20T23:58:01;8.60;99.90
